sensor_id;sensor_type;location;lat;lon;timestamp;pressure;altitude;pressure_sealevel;temperature;humidity
74615;BME280;63121;51.458;-0.110;2023-04-16T00:01:31;102429.31;;;13.89;59.25
74615;BME280;63121;51.458;-0.110;2023-04-16T00:03:56;102425.00;;;13.86;59.14
74615;BME280;63121;51.458;-0.110;2023-04-16T00:06:22;102424.13;;;13.86;59.11
74615;BME280;63121;51.458;-0.110;2023-04-16T00:08:47;102431.06;;;13.85;58.81
74615;BME280;63121;51.458;-0.110;2023-04-16T00:11:12;102431.88;;;13.76;58.73
74615;BME280;63121;51.458;-0.110;2023-04-16T00:13:38;102430.94;;;13.57;59.29
74615;BME280;63121;51.458;-0.110;2023-04-16T00:16:03;102436.09;;;13.44;59.80
74615;BME280;63121;51.458;-0.110;2023-04-16T00:18:29;102439.38;;;13.19;60.17
74615;BME280;63121;51.458;-0.110;2023-04-16T00:20:55;102435.97;;;13.27;59.92
74615;BME280;63121;51.458;-0.110;2023-04-16T00:23:20;102438.53;;;13.23;60.11
74615;BME280;63121;51.458;-0.110;2023-04-16T00:25:46;102437.69;;;13.20;59.95
74615;BME280;63121;51.458;-0.110;2023-04-16T00:28:11;102435.97;;;13.27;60.00
74615;BME280;63121;51.458;-0.110;2023-04-16T00:30:37;102431.63;;;13.18;59.86
74615;BME280;63121;51.458;-0.110;2023-04-16T00:33:02;102433.28;;;13.13;60.31
74615;BME280;63121;51.458;-0.110;2023-04-16T00:35:28;102431.59;;;13.19;60.14
74615;BME280;63121;51.458;-0.110;2023-04-16T00:37:54;102430.75;;;13.19;59.92
74615;BME280;63121;51.458;-0.110;2023-04-16T00:40:20;102432.53;;;13.26;59.97
74615;BME280;63121;51.458;-0.110;2023-04-16T00:42:45;102430.75;;;13.23;59.46
74615;BME280;63121;51.458;-0.110;2023-04-16T00:45:11;102428.19;;;13.27;59.85
74615;BME280;63121;51.458;-0.110;2023-04-16T00:47:37;102431.66;;;13.27;59.63
74615;BME280;63121;51.458;-0.110;2023-04-16T00:50:03;102429.84;;;13.15;60.00
74615;BME280;63121;51.458;-0.110;2023-04-16T00:52:30;102427.25;;;13.09;60.12
74615;BME280;63121;51.458;-0.110;2023-04-16T00:54:57;102425.44;;;13.00;60.77
74615;BME280;63121;51.458;-0.110;2023-04-16T00:57:23;102430.72;;;13.17;60.32
74615;BME280;63121;51.458;-0.110;2023-04-16T00:59:48;102432.44;;;13.09;60.33
74615;BME280;63121;51.458;-0.110;2023-04-16T01:02:14;102434.16;;;13.07;60.16
74615;BME280;63121;51.458;-0.110;2023-04-16T01:04:40;102425.53;;;13.11;60.07
74615;BME280;63121;51.458;-0.110;2023-04-16T01:07:06;102430.72;;;13.17;60.25
74615;BME280;63121;51.458;-0.110;2023-04-16T01:09:31;102427.25;;;13.15;59.86
74615;BME280;63121;51.458;-0.110;2023-04-16T01:11:56;102428.97;;;13.10;59.80
74615;BME280;63121;51.458;-0.110;2023-04-16T01:14:22;102420.31;;;13.08;59.63
74615;BME280;63121;51.458;-0.110;2023-04-16T01:16:47;102413.44;;;13.15;59.53
74615;BME280;63121;51.458;-0.110;2023-04-16T01:19:12;102416.91;;;13.14;59.22
74615;BME280;63121;51.458;-0.110;2023-04-16T01:21:38;102415.94;;;13.02;60.20
74615;BME280;63121;51.458;-0.110;2023-04-16T01:24:03;102413.41;;;13.13;59.55
74615;BME280;63121;51.458;-0.110;2023-04-16T01:26:29;102413.34;;;12.99;59.63
74615;BME280;63121;51.458;-0.110;2023-04-16T01:28:55;102418.59;;;13.13;59.23
74615;BME280;63121;51.458;-0.110;2023-04-16T01:31:20;102414.19;;;12.95;59.58
74615;BME280;63121;51.458;-0.110;2023-04-16T01:33:45;102413.28;;;12.92;60.22
74615;BME280;63121;51.458;-0.110;2023-04-16T01:36:11;102408.97;;;12.94;59.64
74615;BME280;63121;51.458;-0.110;2023-04-16T01:38:36;102416.75;;;12.94;60.16
74615;BME280;63121;51.458;-0.110;2023-04-16T01:41:02;102416.69;;;12.80;59.92
74615;BME280;63121;51.458;-0.110;2023-04-16T01:43:27;102416.69;;;12.81;60.04
74615;BME280;63121;51.458;-0.110;2023-04-16T01:46:19;102416.72;;;12.85;59.70
74615;BME280;63121;51.458;-0.110;2023-04-16T01:48:45;102412.44;;;12.94;59.64
74615;BME280;63121;51.458;-0.110;2023-04-16T01:51:11;102410.75;;;12.95;59.42
74615;BME280;63121;51.458;-0.110;2023-04-16T01:53:37;102418.47;;;12.89;59.75
74615;BME280;63121;51.458;-0.110;2023-04-16T01:56:02;102412.44;;;12.93;60.04
74615;BME280;63121;51.458;-0.110;2023-04-16T01:58:29;102418.50;;;12.93;59.94
74615;BME280;63121;51.458;-0.110;2023-04-16T02:00:54;102413.22;;;12.78;60.09
74615;BME280;63121;51.458;-0.110;2023-04-16T02:03:20;102415.84;;;12.84;60.27
74615;BME280;63121;51.458;-0.110;2023-04-16T02:05:45;102408.09;;;12.89;60.08
74615;BME280;63121;51.458;-0.110;2023-04-16T02:08:11;102407.19;;;12.84;59.86
74615;BME280;63121;51.458;-0.110;2023-04-16T02:10:36;102408.91;;;12.83;59.90
74615;BME280;63121;51.458;-0.110;2023-04-16T02:13:02;102404.59;;;12.84;59.83
74615;BME280;63121;51.458;-0.110;2023-04-16T02:15:27;102400.19;;;12.70;60.29
74615;BME280;63121;51.458;-0.110;2023-04-16T02:17:53;102404.56;;;12.77;60.36
74615;BME280;63121;51.458;-0.110;2023-04-16T02:20:21;102403.78;;;12.86;59.81
74615;BME280;63121;51.458;-0.110;2023-04-16T02:22:46;102401.97;;;12.79;59.76
74615;BME280;63121;51.458;-0.110;2023-04-16T02:25:11;102400.16;;;12.66;60.22
74615;BME280;63121;51.458;-0.110;2023-04-16T02:27:38;102402.00;;;12.82;59.91
74615;BME280;63121;51.458;-0.110;2023-04-16T02:30:04;102403.66;;;12.69;60.32
74615;BME280;63121;51.458;-0.110;2023-04-16T02:32:29;102405.31;;;12.63;60.50
74615;BME280;63121;51.458;-0.110;2023-04-16T02:34:55;102399.34;;;12.70;60.60
74615;BME280;63121;51.458;-0.110;2023-04-16T02:37:21;102397.56;;;12.61;60.63
74615;BME280;63121;51.458;-0.110;2023-04-16T02:39:47;102401.84;;;12.62;60.83
74615;BME280;63121;51.458;-0.110;2023-04-16T02:42:14;102396.75;;;12.70;60.08
74615;BME280;63121;51.458;-0.110;2023-04-16T02:44:40;102396.69;;;12.62;60.14
74615;BME280;63121;51.458;-0.110;2023-04-16T02:47:05;102387.16;;;12.63;60.89
74615;BME280;63121;51.458;-0.110;2023-04-16T02:49:31;102387.13;;;12.55;60.74
74615;BME280;63121;51.458;-0.110;2023-04-16T02:51:56;102390.53;;;12.49;60.77
74615;BME280;63121;51.458;-0.110;2023-04-16T02:54:22;102390.56;;;12.52;61.05
74615;BME280;63121;51.458;-0.110;2023-04-16T02:56:47;102388.78;;;12.45;60.53
74615;BME280;63121;51.458;-0.110;2023-04-16T02:59:12;102387.94;;;12.48;60.91
74615;BME280;63121;51.458;-0.110;2023-04-16T03:01:38;102379.28;;;12.46;60.71
74615;BME280;63121;51.458;-0.110;2023-04-16T03:04:03;102395.66;;;12.40;61.24
74615;BME280;63121;51.458;-0.110;2023-04-16T03:06:28;102390.63;;;12.60;60.56
74615;BME280;63121;51.458;-0.110;2023-04-16T03:08:54;102395.84;;;12.63;60.05
74615;BME280;63121;51.458;-0.110;2023-04-16T03:11:19;102397.50;;;12.55;60.25
74615;BME280;63121;51.458;-0.110;2023-04-16T03:13:45;102399.09;;;12.39;60.95
74615;BME280;63121;51.458;-0.110;2023-04-16T03:16:10;102391.44;;;12.56;60.76
74615;BME280;63121;51.458;-0.110;2023-04-16T03:18:35;102390.66;;;12.63;60.51
74615;BME280;63121;51.458;-0.110;2023-04-16T03:21:01;102395.75;;;12.55;60.52
74615;BME280;63121;51.458;-0.110;2023-04-16T03:23:26;102394.06;;;12.59;60.38
74615;BME280;63121;51.458;-0.110;2023-04-16T03:25:52;102404.41;;;12.54;60.64
74615;BME280;63121;51.458;-0.110;2023-04-16T03:28:17;102401.03;;;12.63;60.39
74615;BME280;63121;51.458;-0.110;2023-04-16T03:30:49;102400.16;;;12.66;60.55
74615;BME280;63121;51.458;-0.110;2023-04-16T03:33:15;102391.47;;;12.60;60.14
74615;BME280;63121;51.458;-0.110;2023-04-16T03:35:40;102402.75;;;12.64;60.10
74615;BME280;63121;51.458;-0.110;2023-04-16T03:38:06;102396.63;;;12.53;60.95
74615;BME280;63121;51.458;-0.110;2023-04-16T03:40:31;102404.44;;;12.59;60.43
74615;BME280;63121;51.458;-0.110;2023-04-16T03:42:56;102394.09;;;12.62;60.72
74615;BME280;63121;51.458;-0.110;2023-04-16T03:45:22;102396.72;;;12.65;60.32
74615;BME280;63121;51.458;-0.110;2023-04-16T03:47:47;102401.78;;;12.51;60.26
74615;BME280;63121;51.458;-0.110;2023-04-16T03:50:18;102395.75;;;12.54;60.74
74615;BME280;63121;51.458;-0.110;2023-04-16T03:52:43;102396.66;;;12.60;59.90
74615;BME280;63121;51.458;-0.110;2023-04-16T03:55:09;102393.22;;;12.65;59.96
74615;BME280;63121;51.458;-0.110;2023-04-16T03:57:34;102386.34;;;12.64;59.90
74615;BME280;63121;51.458;-0.110;2023-04-16T04:00:00;102401.00;;;12.61;60.53
74615;BME280;63121;51.458;-0.110;2023-04-16T04:02:25;102403.66;;;12.69;60.14
74615;BME280;63121;51.458;-0.110;2023-04-16T04:04:51;102399.31;;;12.65;60.23
74615;BME280;63121;51.458;-0.110;2023-04-16T04:07:16;102403.66;;;12.69;59.88
74615;BME280;63121;51.458;-0.110;2023-04-16T04:09:41;102403.66;;;12.69;60.22
74615;BME280;63121;51.458;-0.110;2023-04-16T04:12:07;102407.97;;;12.67;60.00
74615;BME280;63121;51.458;-0.110;2023-04-16T04:14:34;102405.47;;;12.82;59.89
74615;BME280;63121;51.458;-0.110;2023-04-16T04:17:04;102403.66;;;12.72;59.84
74615;BME280;63121;51.458;-0.110;2023-04-16T04:19:29;102403.78;;;12.86;59.57
74615;BME280;63121;51.458;-0.110;2023-04-16T04:21:54;102402.06;;;12.88;59.49
74615;BME280;63121;51.458;-0.110;2023-04-16T04:24:20;102407.16;;;12.76;59.95
74615;BME280;63121;51.458;-0.110;2023-04-16T04:26:45;102403.72;;;12.78;60.37
74615;BME280;63121;51.458;-0.110;2023-04-16T04:29:11;102408.97;;;12.91;59.62
74615;BME280;63121;51.458;-0.110;2023-04-16T04:31:37;102401.16;;;12.88;60.20
74615;BME280;63121;51.458;-0.110;2023-04-16T04:34:02;102402.84;;;12.81;59.95
74615;BME280;63121;51.458;-0.110;2023-04-16T04:36:27;102404.63;;;12.85;59.97
74615;BME280;63121;51.458;-0.110;2023-04-16T04:38:53;102409.91;;;13.02;59.80
74615;BME280;63121;51.458;-0.110;2023-04-16T04:41:18;102406.44;;;13.00;59.91
74615;BME280;63121;51.458;-0.110;2023-04-16T04:43:44;102401.19;;;12.89;60.23
74615;BME280;63121;51.458;-0.110;2023-04-16T04:46:09;102402.91;;;12.92;60.36
74615;BME280;63121;51.458;-0.110;2023-04-16T04:48:34;102402.00;;;12.82;60.64
74615;BME280;63121;51.458;-0.110;2023-04-16T04:51:00;102412.38;;;12.82;60.32
74615;BME280;63121;51.458;-0.110;2023-04-16T04:53:28;102403.69;;;12.77;60.44
74615;BME280;63121;51.458;-0.110;2023-04-16T04:55:53;102403.75;;;12.85;59.64
74615;BME280;63121;51.458;-0.110;2023-04-16T04:58:19;102400.31;;;12.89;59.86
74615;BME280;63121;51.458;-0.110;2023-04-16T05:00:44;102403.72;;;12.80;60.55
74615;BME280;63121;51.458;-0.110;2023-04-16T05:03:10;102400.28;;;12.82;60.02
74615;BME280;63121;51.458;-0.110;2023-04-16T05:05:37;102404.66;;;12.88;60.28
74615;BME280;63121;51.458;-0.110;2023-04-16T05:08:03;102403.75;;;12.85;60.16
74615;BME280;63121;51.458;-0.110;2023-04-16T05:10:28;102398.63;;;12.98;59.29
74615;BME280;63121;51.458;-0.110;2023-04-16T05:12:54;102406.41;;;12.98;59.77
74615;BME280;63121;51.458;-0.110;2023-04-16T05:15:19;102404.66;;;12.91;59.81
74615;BME280;63121;51.458;-0.110;2023-04-16T05:17:44;102403.81;;;12.98;59.52
74615;BME280;63121;51.458;-0.110;2023-04-16T05:20:10;102407.38;;;13.13;58.84
74615;BME280;63121;51.458;-0.110;2023-04-16T05:22:36;102401.31;;;13.12;58.87
74615;BME280;63121;51.458;-0.110;2023-04-16T05:25:02;102406.50;;;13.15;58.92
74615;BME280;63121;51.458;-0.110;2023-04-16T05:27:27;102414.31;;;13.14;58.94
74615;BME280;63121;51.458;-0.110;2023-04-16T05:29:52;102410.00;;;13.20;58.99
74615;BME280;63121;51.458;-0.110;2023-04-16T05:32:18;102401.34;;;13.21;58.72
74615;BME280;63121;51.458;-0.110;2023-04-16T05:34:43;102406.66;;;13.31;58.30
74615;BME280;63121;51.458;-0.110;2023-04-16T05:37:08;102402.25;;;13.27;58.61
74615;BME280;63121;51.458;-0.110;2023-04-16T05:39:34;102413.53;;;13.29;58.75
74615;BME280;63121;51.458;-0.110;2023-04-16T05:41:59;102406.63;;;13.32;58.86
74615;BME280;63121;51.458;-0.110;2023-04-16T05:44:25;102411.81;;;13.34;58.19
74615;BME280;63121;51.458;-0.110;2023-04-16T05:46:50;102414.47;;;13.41;58.37
74615;BME280;63121;51.458;-0.110;2023-04-16T05:49:16;102414.44;;;13.35;58.50
74615;BME280;63121;51.458;-0.110;2023-04-16T05:51:43;102410.19;;;13.54;58.43
74615;BME280;63121;51.458;-0.110;2023-04-16T05:54:08;102413.66;;;13.55;58.19
74615;BME280;63121;51.458;-0.110;2023-04-16T05:56:33;102411.91;;;13.52;58.61
74615;BME280;63121;51.458;-0.110;2023-04-16T05:58:59;102418.84;;;13.56;58.75
74615;BME280;63121;51.458;-0.110;2023-04-16T06:01:24;102412.84;;;13.67;58.01
74615;BME280;63121;51.458;-0.110;2023-04-16T06:03:49;102418.03;;;13.74;58.04
74615;BME280;63121;51.458;-0.110;2023-04-16T06:06:15;102418.06;;;13.73;58.00
74615;BME280;63121;51.458;-0.110;2023-04-16T06:08:40;102415.47;;;13.87;57.36
74615;BME280;63121;51.458;-0.110;2023-04-16T06:11:06;102418.97;;;13.87;57.28
74615;BME280;63121;51.458;-0.110;2023-04-16T06:13:31;102423.28;;;13.99;57.02
74615;BME280;63121;51.458;-0.110;2023-04-16T06:15:56;102419.81;;;13.92;57.03
74615;BME280;63121;51.458;-0.110;2023-04-16T06:18:22;102419.00;;;14.09;56.29
74615;BME280;63121;51.458;-0.110;2023-04-16T06:20:47;102422.47;;;14.18;56.05
74615;BME280;63121;51.458;-0.110;2023-04-16T06:23:13;102417.28;;;14.20;56.17
74615;BME280;63121;51.458;-0.110;2023-04-16T06:25:38;102424.22;;;14.32;55.75
74615;BME280;63121;51.458;-0.110;2023-04-16T06:28:04;102427.69;;;14.40;55.61
74615;BME280;63121;51.458;-0.110;2023-04-16T06:30:29;102433.75;;;14.50;55.05
74615;BME280;63121;51.458;-0.110;2023-04-16T06:32:55;102425.13;;;14.55;54.60
74615;BME280;63121;51.458;-0.110;2023-04-16T06:35:20;102426.84;;;14.58;54.52
74615;BME280;63121;51.458;-0.110;2023-04-16T06:37:46;102428.56;;;14.68;54.10
74615;BME280;63121;51.458;-0.110;2023-04-16T06:40:11;102424.22;;;14.67;53.55
74615;BME280;63121;51.458;-0.110;2023-04-16T06:42:37;102432.03;;;14.86;53.90
74615;BME280;63121;51.458;-0.110;2023-04-16T06:45:02;102433.75;;;14.93;53.27
74615;BME280;63121;51.458;-0.110;2023-04-16T06:47:28;102432.06;;;14.61;53.77
74615;BME280;63121;51.458;-0.110;2023-04-16T06:49:53;102429.44;;;14.58;53.77
74615;BME280;63121;51.458;-0.110;2023-04-16T06:52:19;102429.44;;;14.64;53.36
74615;BME280;63121;51.458;-0.110;2023-04-16T06:54:44;102433.72;;;14.54;53.95
74615;BME280;63121;51.458;-0.110;2023-04-16T06:57:09;102435.47;;;15.01;52.57
74615;BME280;63121;51.458;-0.110;2023-04-16T06:59:35;102437.19;;;15.06;52.18
74615;BME280;63121;51.458;-0.110;2023-04-16T07:02:00;102444.97;;;15.07;52.38
74615;BME280;63121;51.458;-0.110;2023-04-16T07:04:26;102438.09;;;14.88;52.94
74615;BME280;63121;51.458;-0.110;2023-04-16T07:06:51;102443.19;;;15.32;51.38
74615;BME280;63121;51.458;-0.110;2023-04-16T07:09:16;102441.38;;;15.54;51.24
74615;BME280;63121;51.458;-0.110;2023-04-16T07:11:42;102446.53;;;15.67;51.86
74615;BME280;63121;51.458;-0.110;2023-04-16T07:14:08;102448.19;;;15.84;50.57
74615;BME280;63121;51.458;-0.110;2023-04-16T07:16:33;102451.03;;;15.24;51.35
74615;BME280;63121;51.458;-0.110;2023-04-16T07:18:59;102451.78;;;15.51;51.17
74615;BME280;63121;51.458;-0.110;2023-04-16T07:21:24;102455.38;;;15.07;51.80
74615;BME280;63121;51.458;-0.110;2023-04-16T07:23:50;102459.56;;;15.65;50.84
74615;BME280;63121;51.458;-0.110;2023-04-16T07:26:15;102456.94;;;15.63;50.58
74615;BME280;63121;51.458;-0.110;2023-04-16T07:28:41;102461.16;;;15.97;49.71
74615;BME280;63121;51.458;-0.110;2023-04-16T07:31:06;102466.34;;;16.04;49.68
74615;BME280;63121;51.458;-0.110;2023-04-16T07:33:32;102458.50;;;16.06;49.08
74615;BME280;63121;51.458;-0.110;2023-04-16T07:35:57;102456.72;;;16.13;49.26
74615;BME280;63121;51.458;-0.110;2023-04-16T07:38:23;102460.16;;;16.15;49.47
74615;BME280;63121;51.458;-0.110;2023-04-16T07:40:48;102457.44;;;16.32;49.13
74615;BME280;63121;51.458;-0.110;2023-04-16T07:43:14;102462.56;;;16.45;48.11
74615;BME280;63121;51.458;-0.110;2023-04-16T07:45:40;102464.09;;;16.71;48.00
74615;BME280;63121;51.458;-0.110;2023-04-16T07:48:06;102470.34;;;16.53;47.60
74615;BME280;63121;51.458;-0.110;2023-04-16T07:50:31;102469.56;;;16.40;48.23
74615;BME280;63121;51.458;-0.110;2023-04-16T07:52:56;102467.50;;;16.84;46.84
74615;BME280;63121;51.458;-0.110;2023-04-16T07:55:22;102468.34;;;16.88;47.12
74615;BME280;63121;51.458;-0.110;2023-04-16T07:57:47;102469.97;;;16.99;46.63
74615;BME280;63121;51.458;-0.110;2023-04-16T08:00:13;102473.50;;;16.94;46.77
74615;BME280;63121;51.458;-0.110;2023-04-16T08:02:39;102478.09;;;16.62;47.28
74615;BME280;63121;51.458;-0.110;2023-04-16T08:05:04;102479.88;;;16.57;47.51
74615;BME280;63121;51.458;-0.110;2023-04-16T08:07:30;102473.63;;;16.74;46.68
74615;BME280;63121;51.458;-0.110;2023-04-16T08:09:55;102481.63;;;16.55;47.10
74615;BME280;63121;51.458;-0.110;2023-04-16T08:12:21;102479.69;;;16.82;46.66
74615;BME280;63121;51.458;-0.110;2023-04-16T08:14:46;102476.38;;;16.61;46.96
74615;BME280;63121;51.458;-0.110;2023-04-16T08:17:12;102479.13;;;16.41;47.69
74615;BME280;63121;51.458;-0.110;2023-04-16T08:19:38;102482.41;;;16.68;47.07
74615;BME280;63121;51.458;-0.110;2023-04-16T08:22:03;102481.69;;;17.42;45.79
74615;BME280;63121;51.458;-0.110;2023-04-16T08:24:29;102492.06;;;17.48;44.75
74615;BME280;63121;51.458;-0.110;2023-04-16T08:26:55;102482.50;;;17.47;45.39
74615;BME280;63121;51.458;-0.110;2023-04-16T08:29:20;102486.78;;;17.54;44.29
74615;BME280;63121;51.458;-0.110;2023-04-16T08:31:46;102483.72;;;17.93;44.08
74615;BME280;63121;51.458;-0.110;2023-04-16T08:34:11;102483.47;;;17.38;44.66
74615;BME280;63121;51.458;-0.110;2023-04-16T08:36:37;102484.13;;;17.59;44.49
74615;BME280;63121;51.458;-0.110;2023-04-16T08:39:02;102488.88;;;17.20;45.19
74615;BME280;63121;51.458;-0.110;2023-04-16T08:41:30;102491.84;;;17.66;44.15
74615;BME280;63121;51.458;-0.110;2023-04-16T08:43:59;102493.66;;;17.60;43.94
74615;BME280;63121;51.458;-0.110;2023-04-16T08:46:25;102492.81;;;18.26;42.55
74615;BME280;63121;51.458;-0.110;2023-04-16T08:48:53;102489.59;;;18.66;41.96
74615;BME280;63121;51.458;-0.110;2023-04-16T08:51:21;102493.59;;;18.34;42.52
74615;BME280;63121;51.458;-0.110;2023-04-16T08:54:02;102486.47;;;18.97;41.63
74615;BME280;63121;51.458;-0.110;2023-04-16T08:56:30;102494.84;;;18.07;42.47
74615;BME280;63121;51.458;-0.110;2023-04-16T08:58:56;102495.44;;;18.26;42.19
74615;BME280;63121;51.458;-0.110;2023-04-16T09:01:24;102489.16;;;18.38;41.79
74615;BME280;63121;51.458;-0.110;2023-04-16T09:03:51;102499.69;;;18.89;41.71
74615;BME280;63121;51.458;-0.110;2023-04-16T09:06:16;102496.63;;;19.14;40.71
74615;BME280;63121;51.458;-0.110;2023-04-16T09:08:45;102501.91;;;19.12;40.05
74615;BME280;63121;51.458;-0.110;2023-04-16T09:11:12;102505.63;;;18.99;40.42
74615;BME280;63121;51.458;-0.110;2023-04-16T09:13:38;102508.03;;;18.57;41.74
74615;BME280;63121;51.458;-0.110;2023-04-16T09:16:05;102509.66;;;19.17;40.93
74615;BME280;63121;51.458;-0.110;2023-04-16T09:18:31;102504.88;;;18.92;41.52
74615;BME280;63121;51.458;-0.110;2023-04-16T09:20:56;102509.44;;;18.78;41.61
74615;BME280;63121;51.458;-0.110;2023-04-16T09:23:22;102508.78;;;18.63;40.17
74615;BME280;63121;51.458;-0.110;2023-04-16T09:25:48;102516.78;;;18.54;40.52
74615;BME280;63121;51.458;-0.110;2023-04-16T09:28:37;102518.69;;;18.44;40.26
74615;BME280;63121;51.458;-0.110;2023-04-16T09:31:13;102513.91;;;18.71;40.14
74615;BME280;63121;51.458;-0.110;2023-04-16T09:33:39;102513.44;;;19.00;40.56
74615;BME280;63121;51.458;-0.110;2023-04-16T09:36:05;102506.94;;;19.66;38.79
74615;BME280;63121;51.458;-0.110;2023-04-16T09:38:47;102510.94;;;19.42;39.61
74615;BME280;63121;51.458;-0.110;2023-04-16T09:41:13;102508.22;;;19.47;39.03
74615;BME280;63121;51.458;-0.110;2023-04-16T09:43:41;102508.22;;;19.47;39.04
74615;BME280;63121;51.458;-0.110;2023-04-16T09:46:13;102511.56;;;19.08;39.51
74615;BME280;63121;51.458;-0.110;2023-04-16T09:48:38;102506.47;;;19.01;39.04
74615;BME280;63121;51.458;-0.110;2023-04-16T09:51:05;102515.22;;;19.00;38.39
74615;BME280;63121;51.458;-0.110;2023-04-16T09:53:31;102513.78;;;19.28;38.37
74615;BME280;63121;51.458;-0.110;2023-04-16T09:56:01;102509.16;;;19.43;38.61
74615;BME280;63121;51.458;-0.110;2023-04-16T09:58:27;102510.44;;;19.67;36.79
74615;BME280;63121;51.458;-0.110;2023-04-16T10:03:35;102513.53;;;19.42;37.27
74615;BME280;63121;51.458;-0.110;2023-04-16T10:06:18;102516.91;;;19.01;37.55
74615;BME280;63121;51.458;-0.110;2023-04-16T10:08:53;102515.44;;;19.79;36.48
74615;BME280;63121;51.458;-0.110;2023-04-16T10:11:22;102516.06;;;19.48;36.21
74615;BME280;63121;51.458;-0.110;2023-04-16T10:13:48;102516.09;;;19.45;36.50
74615;BME280;63121;51.458;-0.110;2023-04-16T10:16:14;102517.13;;;20.24;35.23
74615;BME280;63121;51.458;-0.110;2023-04-16T10:18:41;102516.09;;;19.90;34.87
74615;BME280;63121;51.458;-0.110;2023-04-16T10:21:07;102517.84;;;19.90;34.81
74615;BME280;63121;51.458;-0.110;2023-04-16T10:23:37;102516.88;;;19.94;35.18
74615;BME280;63121;51.458;-0.110;2023-04-16T10:26:04;102510.22;;;20.20;35.48
74615;BME280;63121;51.458;-0.110;2023-04-16T10:28:29;102506.97;;;20.46;34.91
74615;BME280;63121;51.458;-0.110;2023-04-16T10:30:58;102508.88;;;20.77;34.37
74615;BME280;63121;51.458;-0.110;2023-04-16T10:33:28;102511.34;;;20.08;34.13
74615;BME280;63121;51.458;-0.110;2023-04-16T10:36:11;102508.00;;;19.58;33.95
74615;BME280;63121;51.458;-0.110;2023-04-16T10:38:39;102512.94;;;20.52;33.98
74615;BME280;63121;51.458;-0.110;2023-04-16T10:41:06;102510.63;;;20.01;34.02
74615;BME280;63121;51.458;-0.110;2023-04-16T10:43:38;102515.13;;;19.95;34.33
74615;BME280;63121;51.458;-0.110;2023-04-16T10:46:29;102510.25;;;20.17;33.71
74615;BME280;63121;51.458;-0.110;2023-04-16T10:48:58;102504.78;;;20.26;33.21
74615;BME280;63121;51.458;-0.110;2023-04-16T10:51:34;102509.59;;;20.46;32.38
74615;BME280;63121;51.458;-0.110;2023-04-16T10:56:32;102508.47;;;20.56;31.31
74615;BME280;63121;51.458;-0.110;2023-04-16T10:58:58;102505.84;;;20.58;32.42
74615;BME280;63121;51.458;-0.110;2023-04-16T11:01:31;102507.63;;;20.91;32.07
74615;BME280;63121;51.458;-0.110;2023-04-16T11:04:25;102505.75;;;21.29;32.24
74615;BME280;63121;51.458;-0.110;2023-04-16T11:09:48;102509.81;;;21.71;30.73
74615;BME280;63121;51.458;-0.110;2023-04-16T11:12:17;102504.84;;;20.98;31.09
74615;BME280;63121;51.458;-0.110;2023-04-16T11:14:51;102503.38;;;21.19;31.03
74615;BME280;63121;51.458;-0.110;2023-04-16T11:17:18;102504.03;;;21.89;30.87
74615;BME280;63121;51.458;-0.110;2023-04-16T11:19:45;102501.38;;;21.91;30.01
74615;BME280;63121;51.458;-0.110;2023-04-16T11:22:15;102493.00;;;22.06;29.66
74615;BME280;63121;51.458;-0.110;2023-04-16T11:24:45;102500.06;;;22.04;30.14
74615;BME280;63121;51.458;-0.110;2023-04-16T11:27:12;102503.09;;;21.62;31.14
74615;BME280;63121;51.458;-0.110;2023-04-16T11:29:38;102498.53;;;22.27;29.87
74615;BME280;63121;51.458;-0.110;2023-04-16T11:32:04;102502.44;;;21.84;30.71
74615;BME280;63121;51.458;-0.110;2023-04-16T11:34:30;102498.16;;;21.81;31.00
74615;BME280;63121;51.458;-0.110;2023-04-16T11:36:55;102495.19;;;22.48;29.98
74615;BME280;63121;51.458;-0.110;2023-04-16T11:39:22;102495.56;;;22.89;29.79
74615;BME280;63121;51.458;-0.110;2023-04-16T11:41:48;102492.16;;;22.61;29.38
74615;BME280;63121;51.458;-0.110;2023-04-16T11:46:46;102486.78;;;22.64;29.36
74615;BME280;63121;51.458;-0.110;2023-04-16T11:49:11;102491.41;;;23.34;28.32
74615;BME280;63121;51.458;-0.110;2023-04-16T11:51:44;102496.50;;;23.86;27.79
74615;BME280;63121;51.458;-0.110;2023-04-16T11:54:18;102488.22;;;22.99;28.63
74615;BME280;63121;51.458;-0.110;2023-04-16T11:56:45;102486.28;;;22.79;29.16
74615;BME280;63121;51.458;-0.110;2023-04-16T11:59:15;102481.91;;;23.05;28.88
74615;BME280;63121;51.458;-0.110;2023-04-16T12:01:42;102480.84;;;22.84;28.75
74615;BME280;63121;51.458;-0.110;2023-04-16T12:04:10;102480.78;;;23.36;27.92
74615;BME280;63121;51.458;-0.110;2023-04-16T12:06:35;102475.06;;;23.95;27.74
74615;BME280;63121;51.458;-0.110;2023-04-16T12:09:21;102473.63;;;23.39;27.88
74615;BME280;63121;51.458;-0.110;2023-04-16T12:11:47;102479.31;;;23.52;27.93
74615;BME280;63121;51.458;-0.110;2023-04-16T12:14:13;102481.59;;;22.87;28.72
74615;BME280;63121;51.458;-0.110;2023-04-16T12:16:38;102494.91;;;22.83;28.96
74615;BME280;63121;51.458;-0.110;2023-04-16T12:19:04;102490.44;;;22.33;28.84
74615;BME280;63121;51.458;-0.110;2023-04-16T12:21:43;102479.75;;;22.38;28.96
74615;BME280;63121;51.458;-0.110;2023-04-16T12:24:11;102487.97;;;22.28;29.48
74615;BME280;63121;51.458;-0.110;2023-04-16T12:26:39;102478.63;;;22.18;28.73
74615;BME280;63121;51.458;-0.110;2023-04-16T12:29:19;102482.94;;;22.74;28.43
74615;BME280;63121;51.458;-0.110;2023-04-16T12:31:45;102483.34;;;22.62;29.01
74615;BME280;63121;51.458;-0.110;2023-04-16T12:34:12;102482.34;;;21.53;30.75
74615;BME280;63121;51.458;-0.110;2023-04-16T12:36:40;102483.78;;;21.63;31.01
74615;BME280;63121;51.458;-0.110;2023-04-16T12:39:05;102483.19;;;21.83;30.03
74615;BME280;63121;51.458;-0.110;2023-04-16T12:41:32;102482.03;;;21.92;30.43
74615;BME280;63121;51.458;-0.110;2023-04-16T12:44:09;102479.41;;;22.48;29.31
74615;BME280;63121;51.458;-0.110;2023-04-16T12:46:39;102480.28;;;23.26;28.72
74615;BME280;63121;51.458;-0.110;2023-04-16T12:49:04;102476.50;;;23.57;28.35